KISM/ISM METAR and TAF weather

Enter ICAO airport designator
Station Type Date Time Source
KISM METAR 2021/07/29 02:56 UTC NOAA

KISM 290256Z AUTO 24003KT 10SM FEW022 A3004 RMK AO2 SLPNO 6//// 53003 PNO $


Station Type Date Time Source
KISM Decoded METAR 2021/07/29 02:56 UTC NOAA

Orlando, Kissimmee Municipal Airport, FL, United States (KISM) 28-17-23N 081-26-14W
Jul 28, 2021 - 10:56 PM EDT / 2021.07.29 0256 UTC
Wind: from the WSW (240 degrees) at 3 MPH (3 KT):0
Visibility: 10 mile(s):0
Sky conditions: mostly clear
Pressure (altimeter): 30.04 in. Hg (1017 hPa)
Pressure tendency: 0.01 inches (0.3 hPa) higher than three hours ago
ob: KISM 290256Z AUTO 24003KT 10SM FEW022 A3004 RMK AO2 SLPNO 6//// 53003 PNO
cycle: 3

Station Type Date Time Source
KISM TAF 2021/07/28 20:30 UTC NOAA

TAF
AMD KISM 282028Z 2820/2918 26008KT 5SM SHRA VCTS SCT040CB BKN070 OVC250
FM290000 27004KT P6SM FEW050 SCT250
AMD NOT SKED

Example: see airport list